Aviation Digital Data Service (ADDS)

Output produced by TAFs form (0453 UTC 24 November 2014)
found at http://aviationweather.gov/adds/tafs/
 
KGJT 232334Z 2400/2424 32011KT P6SM SCT050 
     FM240200 34009KT P6SM SCT080 
     FM240600 04008KT P6SM BKN100 
     FM241100 12008KT P6SM BKN050 
     FM242000 32008KT P6SM VCSH BKN050